Time;durP1;ratioP1;P1;durP2;ratioP2;P2;SDS_P1;SDS_P2;PMS_P1;PMS_P2;Temp;Humidity;BMP_temperature;BMP_pressure;BME280_temperature;BME280_humidity;BME280_pressure;Samples;Min_cycle;Max_cycle;Signal;HPM_P1;HPM_P2
2022/06/10 00:01:59;;;;;;;0.10;0.10;;;;;;;17.60;53.74;102062.19;5060476;28;20321;-82
2022/06/10 00:04:26;;;;;;;0.10;0.10;;;;;;;17.68;53.50;102060.13;5066319;28;20031;-82
2022/06/10 00:06:52;;;;;;;0.10;0.10;;;;;;;17.75;55.21;102066.22;5072011;28;20037;-82
2022/06/10 00:09:18;;;;;;;0.10;0.10;;;;;;;17.82;54.96;102058.84;5065723;28;20028;-82
2022/06/10 00:11:44;;;;;;;0.63;0.40;;;;;;;17.89;54.50;102065.78;5061445;28;20029;-82
2022/06/10 00:14:10;;;;;;;0.00;0.00;;;;;;;17.95;54.67;102052.22;5061651;28;20480;-82
2022/06/10 00:16:37;;;;;;;0.10;0.10;;;;;;;17.99;55.70;102053.84;5068725;28;20031;-82
2022/06/10 00:19:03;;;;;;;0.00;0.00;;;;;;;18.07;54.77;102053.63;5073588;28;20538;-82
2022/06/10 00:21:30;;;;;;;0.00;0.00;;;;;;;18.10;55.11;102049.03;5076202;28;20269;-82
2022/06/10 00:23:56;;;;;;;0.25;0.25;;;;;;;18.14;55.28;102047.13;5068048;28;20033;-82
2022/06/10 00:26:22;;;;;;;0.00;0.00;;;;;;;18.20;54.85;102051.41;5074399;28;20066;-82
2022/06/10 00:28:49;;;;;;;0.13;0.13;;;;;;;18.22;55.41;102046.88;5075995;28;20492;-82
2022/06/10 00:31:16;;;;;;;0.10;0.10;;;;;;;18.28;54.42;102046.69;5072017;28;20040;-82
2022/06/10 00:33:42;;;;;;;0.00;0.00;;;;;;;18.29;56.25;102051.09;5074923;28;20032;-82
2022/06/10 00:36:10;;;;;;;0.13;0.13;;;;;;;18.35;55.32;102048.22;5073792;28;20053;-82
2022/06/10 00:38:36;;;;;;;0.65;0.57;;;;;;;18.37;55.44;102049.06;5073840;28;20078;-82
2022/06/10 00:41:05;;;;;;;0.08;0.08;;;;;;;18.42;54.66;102047.09;5072831;28;20116;-82
2022/06/10 00:43:34;;;;;;;0.00;0.00;;;;;;;18.45;55.53;102055.97;5071437;28;20042;-82
2022/06/10 00:48:47;;;;;;;0.00;0.00;;;;;;;18.52;54.64;102036.06;5155806;27;20391;-76
2022/06/10 00:54:01;;;;;;;0.00;0.00;;;;;;;18.63;54.39;102033.88;5083757;27;20401;-76
2022/06/10 00:56:29;;;;;;;0.10;0.10;;;;;;;18.66;54.21;102044.47;5088859;28;20036;-76
2022/06/10 00:59:10;;;;;;;0.00;0.00;;;;;;;18.74;54.71;102045.09;5082131;28;20028;-76
2022/06/10 01:01:38;;;;;;;0.00;0.00;;;;;;;18.65;56.03;102040.03;5082604;28;20556;-76
2022/06/10 01:04:05;;;;;;;0.00;0.00;;;;;;;18.71;55.04;102038.97;5073865;28;20024;-76
2022/06/10 01:06:31;;;;;;;0.03;0.03;;;;;;;18.74;54.85;102047.78;5077522;28;20419;-76
2022/06/10 01:09:00;;;;;;;0.00;0.00;;;;;;;18.76;54.76;102051.28;5086926;28;20028;-77
2022/06/10 01:11:46;;;;;;;0.00;0.00;;;;;;;18.86;54.26;102045.59;5094433;28;20036;-77
2022/06/10 01:25:58;;;;;;;0.63;0.63;;;;;;;19.01;55.23;102050.44;5072724;28;20408;-76
2022/06/10 01:31:21;;;;;;;0.00;0.00;;;;;;;19.05;53.72;102052.09;5048670;28;20408;-76
2022/06/10 01:39:45;;;;;;;0.00;0.00;;;;;;;19.12;54.60;102052.75;5083536;28;20413;-76
2022/06/10 01:47:59;;;;;;;0.10;0.10;;;;;;;19.23;54.14;102041.59;5113530;27;20400;-75
2022/06/10 01:53:23;;;;;;;0.10;0.10;;;;;;;19.17;53.83;102040.00;5073839;28;20405;-75
2022/06/10 01:56:00;;;;;;;0.10;0.10;;;;;;;19.12;53.97;102051.88;5065496;28;20760;-75
2022/06/10 01:58:36;;;;;;;0.10;0.10;;;;;;;19.13;54.45;102054.50;5069504;28;20040;-75
2022/06/10 02:01:11;;;;;;;0.10;0.10;;;;;;;19.24;53.97;102041.53;5072129;28;20024;-75
2022/06/10 02:03:45;;;;;;;0.00;0.00;;;;;;;19.27;54.39;102045.06;5068181;28;20031;-75
2022/06/10 02:06:19;;;;;;;0.00;0.00;;;;;;;19.27;53.84;102051.28;5066079;28;20068;-76
2022/06/10 02:09:07;;;;;;;0.00;0.00;;;;;;;19.19;54.23;102043.53;5068671;28;20025;-76
2022/06/10 02:11:37;;;;;;;0.10;0.10;;;;;;;19.27;53.76;102045.91;5076185;28;20020;-75
2022/06/10 02:14:11;;;;;;;0.03;0.03;;;;;;;19.38;53.74;102042.84;5069342;28;20557;-75
2022/06/10 02:16:42;;;;;;;0.10;0.10;;;;;;;19.19;54.24;102042.63;5070789;28;20060;-75
2022/06/10 02:19:28;;;;;;;0.10;0.10;;;;;;;19.39;53.57;102040.09;5062451;28;20039;-75
2022/06/10 02:21:59;;;;;;;0.35;0.35;;;;;;;19.35;53.53;102043.84;5062288;28;20071;-76
2022/06/10 02:24:40;;;;;;;0.10;0.10;;;;;;;19.42;53.77;102048.97;5063198;28;20086;-75
2022/06/10 02:27:13;;;;;;;0.20;0.20;;;;;;;19.31;53.78;102052.91;5070590;28;20827;-76
2022/06/10 02:30:01;;;;;;;0.00;0.00;;;;;;;19.31;53.96;102050.25;5063461;28;20033;-77
2022/06/10 02:32:29;;;;;;;0.00;0.00;;;;;;;19.32;54.10;102049.31;5064892;28;20033;-77
2022/06/10 02:34:57;;;;;;;0.00;0.00;;;;;;;19.31;53.85;102052.91;5062721;28;20038;-77
2022/06/10 02:37:40;;;;;;;0.00;0.00;;;;;;;19.42;53.97;102051.66;5063195;28;20111;-77
2022/06/10 02:43:13;;;;;;;0.17;0.17;;;;;;;19.44;54.09;102057.84;5109422;27;1187308;-76
2022/06/10 02:48:43;;;;;;;0.00;0.00;;;;;;;19.41;54.22;102061.50;5106020;27;20349;-76
2022/06/10 02:51:10;;;;;;;0.00;0.00;;;;;;;19.37;54.49;102063.44;5085105;28;20092;-76
2022/06/10 02:53:36;;;;;;;0.88;0.77;;;;;;;19.35;54.31;102054.59;5090613;28;20056;-76
2022/06/10 02:56:15;;;;;;;0.00;0.00;;;;;;;19.45;54.68;102059.59;5090657;28;20032;-76
2022/06/10 03:06:54;;;;;;;0.00;0.00;;;;;;;19.31;55.22;102055.59;5093831;28;20420;-76
2022/06/10 03:12:35;;;;;;;0.00;0.00;;;;;;;19.25;55.34;102077.34;5103677;27;1178440;-75
2022/06/10 03:15:42;;;;;;;1.27;0.80;;;;;;;19.26;56.34;102076.41;5115361;28;20032;-75
2022/06/10 03:18:34;;;;;;;0.00;0.00;;;;;;;19.28;56.30;102084.41;5123950;28;20358;-76
2022/06/10 03:23:52;;;;;;;0.05;0.05;;;;;;;19.28;57.15;102082.59;5088105;28;20410;-75
2022/06/10 03:26:40;;;;;;;6.70;1.95;;;;;;;19.08;58.01;102070.78;5085911;28;20034;-75
2022/06/10 03:29:30;;;;;;;0.10;0.10;;;;;;;19.07;58.87;102077.06;5088756;28;20086;-76
2022/06/10 03:32:03;;;;;;;0.00;0.00;;;;;;;18.97;59.22;102077.47;5086494;28;20035;-76
2022/06/10 03:34:36;;;;;;;0.00;0.00;;;;;;;18.92;59.16;102083.00;5088667;28;20113;-76
2022/06/10 03:37:04;;;;;;;0.00;0.00;;;;;;;18.98;59.04;102085.47;5085234;28;20478;-76
2022/06/10 03:39:31;;;;;;;0.00;0.00;;;;;;;18.92;59.77;102083.88;5080199;28;20128;-76
2022/06/10 03:44:33;;;;;;;0.10;0.10;;;;;;;18.93;60.34;102084.78;5122029;27;1182103;-76
2022/06/10 03:47:00;;;;;;;0.10;0.10;;;;;;;18.86;60.58;102094.78;5145823;27;20057;-76
2022/06/10 03:49:33;;;;;;;0.00;0.00;;;;;;;18.86;60.19;102093.94;5139286;27;20031;-76
2022/06/10 03:52:01;;;;;;;0.10;0.10;;;;;;;18.86;61.17;102088.56;5128948;27;20556;-76
2022/06/10 03:54:27;;;;;;;0.08;0.08;;;;;;;18.80;61.03;102086.09;5133892;27;20114;-76
2022/06/10 03:56:54;;;;;;;0.20;0.20;;;;;;;18.59;62.54;102096.63;5139976;27;20023;-75
2022/06/10 03:59:20;;;;;;;0.10;0.10;;;;;;;18.67;62.47;102093.69;5130434;27;20028;-75
2022/06/10 04:01:46;;;;;;;0.00;0.00;;;;;;;18.63;62.59;102092.94;5127322;28;20023;-76
2022/06/10 04:04:13;;;;;;;0.20;0.20;;;;;;;18.56;63.35;102096.75;5124912;22;20477;-78
2022/06/10 04:06:39;;;;;;;0.00;0.00;;;;;;;18.58;63.01;102094.91;5087792;28;20574;-78
2022/06/10 04:09:05;;;;;;;0.05;0.05;;;;;;;18.65;61.79;102090.19;5088494;28;20035;-78
2022/06/10 04:11:32;;;;;;;0.00;0.00;;;;;;;18.63;63.56;102092.94;5089521;28;20032;-78
2022/06/10 04:13:58;;;;;;;0.10;0.10;;;;;;;18.75;62.67;102096.97;5097476;28;20066;-78
2022/06/10 04:16:24;;;;;;;1.17;1.17;;;;;;;18.78;62.33;102096.00;5095701;28;20522;-78
2022/06/10 04:18:50;;;;;;;0.10;0.10;;;;;;;18.83;62.59;102092.22;5102043;28;20039;-78
2022/06/10 04:21:16;;;;;;;2.35;1.20;;;;;;;18.87;62.63;102093.00;5075293;28;20024;-78
2022/06/10 04:23:42;;;;;;;0.08;0.08;;;;;;;18.86;62.86;102089.44;5105798;28;21093;-78
2022/06/10 04:26:08;;;;;;;0.40;0.40;;;;;;;18.88;62.12;102092.09;5099525;28;20036;-78
2022/06/10 04:28:34;;;;;;;0.70;0.65;;;;;;;19.01;62.34;102098.78;5101222;28;20040;-78
2022/06/10 04:31:01;;;;;;;0.10;0.10;;;;;;;19.00;62.20;102097.03;5103491;28;20062;-78
2022/06/10 04:33:27;;;;;;;0.10;0.10;;;;;;;19.14;61.35;102092.97;5104154;28;20077;-77
2022/06/10 04:35:54;;;;;;;0.10;0.10;;;;;;;19.20;61.59;102090.06;5106883;28;20569;-78
2022/06/10 04:38:22;;;;;;;0.10;0.10;;;;;;;19.28;61.80;102089.78;5101009;28;20039;-78
2022/06/10 04:40:48;;;;;;;0.10;0.10;;;;;;;19.27;61.31;102093.41;5105742;28;20103;-78
2022/06/10 04:43:15;;;;;;;0.00;0.00;;;;;;;19.35;61.30;102097.56;5096196;28;20063;-78
2022/06/10 04:45:46;;;;;;;0.00;0.00;;;;;;;19.36;61.64;102093.94;5099697;28;20036;-78
2022/06/10 04:48:14;;;;;;;0.00;0.00;;;;;;;19.37;61.83;102095.69;5103971;28;20114;-78
2022/06/10 04:50:41;;;;;;;0.10;0.10;;;;;;;19.48;61.15;102086.38;5099590;28;20495;-78
2022/06/10 04:53:08;;;;;;;0.10;0.10;;;;;;;19.48;61.74;102089.91;5095042;28;20024;-78
2022/06/10 04:55:35;;;;;;;0.10;0.10;;;;;;;19.52;61.56;102088.00;5096879;28;20067;-78
2022/06/10 04:58:02;;;;;;;0.00;0.00;;;;;;;19.52;61.52;102083.50;5089197;28;20028;-78
2022/06/10 05:00:34;;;;;;;0.10;0.10;;;;;;;19.57;61.43;102086.00;5091099;28;22571;-78
2022/06/10 05:03:02;;;;;;;0.10;0.10;;;;;;;19.55;61.40;102083.38;5088360;28;20031;-78
2022/06/10 05:05:29;;;;;;;0.10;0.10;;;;;;;19.59;61.37;102084.16;5089418;28;20388;-77
2022/06/10 05:07:56;;;;;;;0.10;0.10;;;;;;;19.60;61.17;102085.91;5076088;28;20028;-78
2022/06/10 05:10:22;;;;;;;0.10;0.10;;;;;;;19.63;60.43;102076.84;5079184;28;20472;-78
2022/06/10 05:12:50;;;;;;;0.10;0.10;;;;;;;19.64;60.33;102082.16;5094099;28;20012;-78
2022/06/10 05:15:20;;;;;;;0.77;0.77;;;;;;;19.72;59.65;102074.66;5092328;28;20035;-78
2022/06/10 05:17:48;;;;;;;0.05;0.05;;;;;;;19.72;59.17;102080.03;5088878;28;20028;-78
2022/06/10 05:20:22;;;;;;;0.08;0.08;;;;;;;19.77;59.07;102081.69;5085664;28;20151;-78
2022/06/10 05:22:48;;;;;;;0.75;0.75;;;;;;;19.70;58.89;102084.59;5090930;28;20023;-78
2022/06/10 05:25:14;;;;;;;0.00;0.00;;;;;;;19.79;58.88;102082.47;5082931;28;20093;-78
2022/06/10 05:27:40;;;;;;;0.10;0.10;;;;;;;19.77;58.42;102087.06;5083692;28;20029;-78
2022/06/10 05:30:09;;;;;;;0.10;0.10;;;;;;;19.80;58.53;102078.84;5082354;28;20491;-78
2022/06/10 05:32:35;;;;;;;0.10;0.10;;;;;;;19.77;57.99;102081.69;5089849;28;20024;-78
2022/06/10 05:35:02;;;;;;;0.30;0.30;;;;;;;19.82;57.88;102085.06;5088052;28;20118;-78
2022/06/10 05:37:28;;;;;;;0.10;0.10;;;;;;;19.83;57.69;102081.47;5076254;28;20095;-78
2022/06/10 05:39:55;;;;;;;0.08;0.08;;;;;;;19.82;57.58;102085.94;5086605;28;20086;-78
2022/06/10 05:42:21;;;;;;;0.10;0.10;;;;;;;19.87;57.50;102088.47;5076761;28;20024;-78
2022/06/10 05:44:50;;;;;;;0.00;0.00;;;;;;;19.73;57.30;102091.69;5083438;28;20504;-78
2022/06/10 05:47:21;;;;;;;2.03;1.92;;;;;;;19.87;57.20;102096.53;5084139;28;20105;-77
2022/06/10 05:49:55;;;;;;;0.28;0.28;;;;;;;19.93;57.46;102092.75;5084998;28;20029;-78
2022/06/10 05:52:24;;;;;;;0.00;0.00;;;;;;;19.92;57.26;102097.22;5079943;28;20116;-78
2022/06/10 05:54:52;;;;;;;0.57;0.57;;;;;;;19.92;56.96;102091.00;5084493;28;20028;-78
2022/06/10 05:57:19;;;;;;;1.45;0.55;;;;;;;20.02;57.01;102097.75;5080494;28;20036;-78
2022/06/10 05:59:47;;;;;;;0.10;0.10;;;;;;;20.06;57.07;102098.50;5081472;28;20031;-78
2022/06/10 06:02:14;;;;;;;0.28;0.28;;;;;;;20.12;57.13;102098.25;5080473;28;20047;-78
2022/06/10 06:04:41;;;;;;;0.10;0.10;;;;;;;20.15;57.13;102104.41;5087977;28;20033;-81
2022/06/10 06:07:08;;;;;;;0.10;0.10;;;;;;;20.19;56.83;102103.31;5082058;28;20047;-78
2022/06/10 06:09:35;;;;;;;0.00;0.00;;;;;;;20.21;56.89;102105.94;5092024;28;20024;-78
2022/06/10 06:12:01;;;;;;;0.10;0.10;;;;;;;20.24;56.81;102102.25;5073138;28;20024;-78
2022/06/10 06:14:28;;;;;;;0.10;0.10;;;;;;;20.19;56.82;102107.84;5073212;28;20163;-78
2022/06/10 06:16:58;;;;;;;0.00;0.00;;;;;;;20.18;56.57;102106.09;5073801;28;20113;-78
2022/06/10 06:19:26;;;;;;;0.10;0.10;;;;;;;20.20;57.15;102106.91;5080587;28;20114;-78
2022/06/10 06:21:52;;;;;;;0.00;0.00;;;;;;;20.26;57.38;102117.44;5092235;28;20536;-78
2022/06/10 06:24:19;;;;;;;0.17;0.17;;;;;;;20.28;57.57;102120.06;5085856;28;20024;-78
2022/06/10 06:26:45;;;;;;;0.10;0.10;;;;;;;20.29;57.58;102116.44;5093969;28;20036;-78
2022/06/10 06:29:12;;;;;;;0.00;0.00;;;;;;;20.29;57.52;102125.38;5093020;28;20031;-78
2022/06/10 06:31:38;;;;;;;0.00;0.00;;;;;;;20.46;57.21;102123.78;5080410;28;20522;-78
2022/06/10 06:34:05;;;;;;;0.00;0.00;;;;;;;20.53;57.28;102117.22;5079775;28;20040;-78
2022/06/10 06:36:38;;;;;;;0.50;0.35;;;;;;;20.72;57.20;102124.56;5073746;28;20032;-77
2022/06/10 06:39:05;;;;;;;0.10;0.10;;;;;;;20.84;56.93;102118.66;5081300;28;20099;-77
2022/06/10 06:41:31;;;;;;;0.17;0.17;;;;;;;20.78;56.31;102130.53;5090780;28;20088;-77
2022/06/10 06:43:57;;;;;;;0.20;0.20;;;;;;;20.80;55.66;102131.38;5091106;28;20093;-77
2022/06/10 06:46:24;;;;;;;0.47;0.47;;;;;;;20.82;55.80;102128.59;5083589;28;20052;-77
2022/06/10 06:48:50;;;;;;;0.20;0.20;;;;;;;20.94;55.83;102127.22;5085383;28;20099;-77
2022/06/10 06:51:16;;;;;;;0.80;0.70;;;;;;;20.93;55.80;102123.63;5088655;28;20574;-78
2022/06/10 06:53:42;;;;;;;0.00;0.00;;;;;;;21.03;55.55;102123.25;5078122;28;20075;-77
2022/06/10 06:56:09;;;;;;;0.05;0.05;;;;;;;21.04;55.23;102120.47;5082553;28;20448;-78
2022/06/10 06:58:35;;;;;;;0.22;0.17;;;;;;;21.14;55.17;102129.03;5079588;28;20089;-78
2022/06/10 07:01:01;;;;;;;0.20;0.20;;;;;;;21.22;54.85;102129.56;5078050;28;20033;-77
2022/06/10 07:03:28;;;;;;;0.10;0.10;;;;;;;21.33;54.57;102121.88;5085516;28;20488;-78
2022/06/10 07:05:54;;;;;;;0.10;0.10;;;;;;;21.34;54.15;102123.59;5092926;28;20024;-77
2022/06/10 07:08:20;;;;;;;0.10;0.10;;;;;;;21.54;54.34;102124.53;5087271;28;20118;-78
2022/06/10 07:10:46;;;;;;;0.80;0.80;;;;;;;21.61;53.41;102120.63;5080518;28;20117;-78
2022/06/10 07:13:13;;;;;;;0.10;0.10;;;;;;;21.73;53.43;102126.41;5087867;28;20028;-78
2022/06/10 07:15:42;;;;;;;0.85;0.85;;;;;;;21.85;52.84;102125.81;5093235;28;20092;-78
2022/06/10 07:18:08;;;;;;;0.03;0.03;;;;;;;22.01;52.73;102133.19;5092229;28;20487;-78
2022/06/10 07:20:36;;;;;;;0.10;0.10;;;;;;;22.09;51.33;102128.31;5086762;28;20043;-78
2022/06/10 07:23:06;;;;;;;0.00;0.00;;;;;;;22.32;51.94;102129.88;5083844;28;20062;-78
2022/06/10 07:25:33;;;;;;;0.10;0.10;;;;;;;22.27;50.76;102124.72;5075307;28;20067;-78
2022/06/10 07:27:59;;;;;;;0.10;0.10;;;;;;;22.25;50.27;102125.72;5077028;28;20024;-78
2022/06/10 07:30:28;;;;;;;0.30;0.30;;;;;;;22.33;49.96;102131.63;5091595;28;20551;-78
2022/06/10 07:32:55;;;;;;;0.10;0.10;;;;;;;22.44;49.81;102136.53;5086518;28;20024;-78
2022/06/10 07:35:22;;;;;;;0.20;0.20;;;;;;;22.41;49.36;102131.28;5089067;28;20056;-78
2022/06/10 07:37:50;;;;;;;0.30;0.30;;;;;;;22.55;50.07;102142.25;5087832;28;20028;-78
2022/06/10 07:43:05;;;;;;;0.03;0.03;;;;;;;22.50;49.35;102138.91;5086391;28;20032;-78
2022/06/10 07:45:32;;;;;;;0.00;0.00;;;;;;;22.54;49.81;102137.84;5092887;28;20032;-78
2022/06/10 07:47:58;;;;;;;0.10;0.10;;;;;;;22.53;49.53;102129.78;5092492;28;20047;-78
2022/06/10 07:50:25;;;;;;;0.20;0.20;;;;;;;22.69;49.62;102130.78;5092904;28;20522;-78
2022/06/10 07:52:51;;;;;;;0.10;0.10;;;;;;;22.82;49.16;102131.00;5083299;28;20050;-78
2022/06/10 07:55:18;;;;;;;0.35;0.35;;;;;;;22.83;48.97;102124.66;5083900;28;20041;-78
2022/06/10 07:57:45;;;;;;;0.65;0.65;;;;;;;22.78;49.21;102134.84;5092464;28;20024;-78
2022/06/10 08:00:13;;;;;;;0.15;0.13;;;;;;;22.93;49.08;102136.75;5091621;28;20036;-78
2022/06/10 08:02:40;;;;;;;0.10;0.10;;;;;;;22.96;48.04;102137.53;5082799;28;20024;-78
2022/06/10 08:05:08;;;;;;;0.15;0.15;;;;;;;22.93;48.33;102134.03;5083647;28;20044;-78
2022/06/10 08:07:37;;;;;;;0.25;0.25;;;;;;;22.97;48.87;102129.34;5091815;28;20028;-78
2022/06/10 08:10:04;;;;;;;0.40;0.40;;;;;;;22.93;48.41;102133.19;5083898;28;20033;-78
2022/06/10 08:12:31;;;;;;;0.00;0.00;;;;;;;22.94;48.49;102135.78;5091898;28;20035;-78
2022/06/10 08:14:57;;;;;;;0.25;0.25;;;;;;;22.97;48.25;102142.88;5085581;28;20484;-78
2022/06/10 08:17:23;;;;;;;0.10;0.10;;;;;;;22.89;48.27;102132.47;5087271;28;20590;-78
2022/06/10 08:19:49;;;;;;;0.30;0.30;;;;;;;23.02;48.57;102138.09;5084261;28;20051;-77
2022/06/10 08:22:46;;;;;;;0.28;0.20;;;;;;;23.05;48.66;102137.06;5092951;28;20035;-78
2022/06/10 08:25:05;;;;;;;2.63;1.70;;;;;;;23.06;48.33;102141.50;5092676;28;20039;-78
2022/06/10 08:27:32;;;;;;;0.30;0.30;;;;;;;23.12;48.21;102133.06;5090602;28;20081;-78
2022/06/10 08:29:59;;;;;;;1.02;1.00;;;;;;;23.17;47.82;102135.56;5082176;28;20058;-78
2022/06/10 08:32:25;;;;;;;0.10;0.10;;;;;;;23.20;47.39;102130.00;5087731;28;20032;-77
2022/06/10 08:34:51;;;;;;;0.10;0.10;;;;;;;23.02;47.64;102137.22;5075631;28;20036;-77
2022/06/10 08:37:17;;;;;;;0.25;0.25;;;;;;;23.08;47.83;102139.59;5075455;28;20397;-78
2022/06/10 08:39:44;;;;;;;0.05;0.05;;;;;;;22.76;48.54;102131.34;5075205;28;20070;-78
2022/06/10 08:53:47;;;;;;;0.10;0.10;;;;;;;23.39;47.80;102135.28;5068841;28;20364;-76
2022/06/10 08:56:34;;;;;;;0.10;0.10;;;;;;;23.55;47.97;102136.22;5068258;28;20036;-77
2022/06/10 08:59:40;;;;;;;0.10;0.10;;;;;;;23.62;48.09;102127.78;5067110;28;20017;-77
2022/06/10 09:07:38;;;;;;;0.00;0.00;;;;;;;23.83;47.19;102123.84;5068638;28;21039;-76
2022/06/10 09:10:07;;;;;;;0.35;0.35;;;;;;;24.05;47.32;102122.66;5067325;28;20028;-77
2022/06/10 09:13:00;;;;;;;0.00;0.00;;;;;;;24.02;47.37;102125.56;5068288;28;20024;-76
2022/06/10 09:15:30;;;;;;;0.10;0.10;;;;;;;23.92;47.11;102130.63;5068623;28;20397;-77
2022/06/10 09:18:05;;;;;;;0.10;0.10;;;;;;;24.03;47.22;102128.19;5067278;28;20443;-77
2022/06/10 09:20:38;;;;;;;0.10;0.10;;;;;;;24.20;46.79;102116.41;5068558;28;20082;-77
2022/06/10 09:23:14;;;;;;;0.10;0.10;;;;;;;24.41;46.57;102118.78;5067040;28;20025;-78
2022/06/10 09:25:44;;;;;;;0.10;0.10;;;;;;;24.37;46.16;102133.50;5067700;28;20032;-78
2022/06/10 09:28:12;;;;;;;0.00;0.00;;;;;;;24.20;46.48;102137.16;5069423;28;20079;-78
2022/06/10 09:33:30;;;;;;;0.08;0.08;;;;;;;24.34;46.92;102136.41;5068833;28;20386;-77
2022/06/10 09:36:08;;;;;;;0.00;0.00;;;;;;;24.65;46.40;102127.38;5029681;28;20045;-77
2022/06/10 09:38:51;;;;;;;0.10;0.10;;;;;;;24.63;45.84;102142.78;5029017;28;20460;-77
2022/06/10 09:41:55;;;;;;;0.05;0.05;;;;;;;24.70;45.40;102129.81;5028979;28;20493;-77
2022/06/10 09:44:33;;;;;;;0.10;0.10;;;;;;;24.33;46.86;102148.19;5036470;28;20037;-77
2022/06/10 09:58:17;;;;;;;0.05;0.05;;;;;;;24.28;46.50;102134.03;5089071;28;20175;-77
2022/06/10 10:00:52;;;;;;;;;;;;;;;24.54;45.57;102129.81;5082147;28;20040;-77
2022/06/10 10:03:35;;;;;;;0.10;0.10;;;;;;;24.69;45.23;102130.78;5087784;28;19919;-77
2022/06/10 10:06:21;;;;;;;0.10;0.10;;;;;;;24.81;45.43;102149.00;5053280;22;20061;-75
2022/06/10 10:20:33;;;;;;;0.10;0.10;;;;;;;24.96;44.75;102139.06;5083848;27;20921;-76
2022/06/10 10:23:25;;;;;;;0.10;0.10;;;;;;;25.03;44.41;102145.00;5066628;28;20044;-76
2022/06/10 10:25:51;;;;;;;0.10;0.10;;;;;;;24.70;44.70;102146.94;5067867;28;20120;-76
2022/06/10 10:28:29;;;;;;;0.20;0.20;;;;;;;24.54;44.86;102141.50;5067884;28;20066;-76
2022/06/10 10:33:31;;;;;;;0.10;0.10;;;;;;;24.15;46.28;102150.09;5088004;27;1867921;-75
2022/06/10 10:35:59;;;;;;;0.10;0.10;;;;;;;24.12;45.51;102159.28;5128968;28;20027;-75
2022/06/10 10:38:43;;;;;;;0.20;0.20;;;;;;;24.26;45.52;102153.06;5126043;28;20060;-75
2022/06/10 10:41:35;;;;;;;0.10;0.10;;;;;;;24.26;45.61;102152.19;5107673;28;20220;-75
2022/06/10 10:44:07;;;;;;;0.93;0.93;;;;;;;24.34;45.69;102148.09;5108252;28;20031;-76
2022/06/10 10:46:35;;;;;;;;;;;;;;;24.58;45.47;102144.06;5107705;28;20385;-76
2022/06/10 10:49:18;;;;;;;3.20;0.50;;;;;;;24.43;46.00;102141.25;5107672;28;20386;-76
2022/06/10 10:51:49;;;;;;;0.10;0.10;;;;;;;24.59;45.17;102153.94;5093419;28;20071;-77
2022/06/10 10:54:22;;;;;;;0.20;0.20;;;;;;;24.71;44.77;102145.06;5101023;28;20123;-76
2022/06/10 10:56:49;;;;;;;0.10;0.10;;;;;;;24.63;44.61;102145.50;5087545;28;20085;-76
2022/06/10 10:59:35;;;;;;;0.00;0.00;;;;;;;25.01;45.07;102141.47;5087632;28;20054;-75
2022/06/10 11:02:23;;;;;;;0.10;0.10;;;;;;;25.11;44.30;102139.97;5089975;28;20013;-75
2022/06/10 11:04:49;;;;;;;0.30;0.30;;;;;;;25.36;43.87;102138.47;5091063;28;20515;-76
2022/06/10 11:07:19;;;;;;;0.20;0.20;;;;;;;25.47;43.26;102130.56;5108322;28;20028;-76
2022/06/10 11:09:51;;;;;;;0.10;0.10;;;;;;;25.57;42.88;102143.53;5105107;28;20114;-76
2022/06/10 11:12:20;;;;;;;0.10;0.10;;;;;;;25.96;43.20;102134.69;5103480;28;20020;-76
2022/06/10 11:14:49;;;;;;;0.10;0.10;;;;;;;25.91;41.87;102138.69;5092291;28;20034;-76
2022/06/10 11:17:19;;;;;;;0.13;0.13;;;;;;;25.78;42.52;102142.19;5093106;28;20027;-76
2022/06/10 11:19:54;;;;;;;0.10;0.10;;;;;;;25.72;42.03;102139.84;5104961;28;20047;-76
2022/06/10 11:27:57;;;;;;;0.10;0.10;;;;;;;25.70;42.53;102136.38;5101544;27;20427;-75
2022/06/10 11:30:32;;;;;;;0.10;0.10;;;;;;;25.95;42.85;102132.06;5084974;28;20370;-76
2022/06/10 11:33:04;;;;;;;0.20;0.20;;;;;;;25.79;43.03;102138.47;5087650;28;20036;-75
2022/06/10 11:35:35;;;;;;;0.50;0.50;;;;;;;25.70;43.12;102143.66;5088545;28;20453;-75
2022/06/10 11:40:56;;;;;;;0.10;0.10;;;;;;;25.86;42.56;102140.78;5067609;28;20357;-75
2022/06/10 11:43:31;;;;;;;0.10;0.10;;;;;;;26.03;42.60;102137.00;5065561;28;20036;-75
2022/06/10 11:46:12;;;;;;;0.63;0.63;;;;;;;25.98;42.58;102134.56;5061783;28;20062;-75
2022/06/10 11:54:37;;;;;;;0.10;0.10;;;;;;;26.22;42.36;102132.13;5068086;28;20387;-75
2022/06/10 12:00:42;;;;;;;0.03;0.03;;;;;;;26.89;42.18;102120.41;5060773;28;20128;-75
2022/06/10 12:06:21;;;;;;;0.00;0.00;;;;;;;26.90;40.62;102116.69;5085372;27;20385;-75
2022/06/10 12:09:15;;;;;;;0.20;0.20;;;;;;;26.90;41.29;102122.13;5084933;28;20040;-75
2022/06/10 12:11:50;;;;;;;0.20;0.20;;;;;;;26.84;40.87;102121.69;5083205;28;20099;-75
2022/06/10 12:19:47;;;;;;;0.10;0.10;;;;;;;26.64;40.61;102115.75;5097665;27;1325094;-74
2022/06/10 12:22:13;;;;;;;0.20;0.20;;;;;;;26.53;40.35;102107.44;5128537;27;20032;-75
2022/06/10 12:24:42;;;;;;;0.10;0.10;;;;;;;26.26;41.07;102121.94;5128231;28;20035;-75
2022/06/10 12:27:17;;;;;;;0.38;0.38;;;;;;;26.39;41.06;102117.41;5121335;28;20020;-75
2022/06/10 12:29:51;;;;;;;0.05;0.05;;;;;;;26.56;41.60;102123.56;5108472;28;20016;-75
2022/06/10 12:32:33;;;;;;;0.28;0.28;;;;;;;26.91;40.93;102110.28;5107402;28;20023;-75
2022/06/10 12:35:08;;;;;;;0.20;0.20;;;;;;;27.20;40.39;102115.50;5108703;28;20489;-75
2022/06/10 12:37:43;;;;;;;0.20;0.20;;;;;;;27.46;39.84;102114.69;5108072;28;20447;-75
2022/06/10 12:43:00;;;;;;;0.10;0.10;;;;;;;27.72;38.41;102108.22;5067064;28;21100;-76
2022/06/10 12:46:06;;;;;;;0.10;0.10;;;;;;;28.02;38.30;102116.97;5067997;28;20094;-75
2022/06/10 12:48:41;;;;;;;0.10;0.10;;;;;;;27.77;37.97;102111.47;5067784;28;20542;-75
2022/06/10 12:54:17;;;;;;;4.18;1.55;;;;;;;27.64;37.94;102116.09;5108545;27;20387;-74
2022/06/10 12:56:44;;;;;;;0.10;0.10;;;;;;;27.97;38.75;102113.72;5104672;28;20066;-75
2022/06/10 12:59:23;;;;;;;0.30;0.30;;;;;;;28.01;36.92;102102.44;5107970;28;20039;-75
2022/06/10 13:01:49;;;;;;;0.10;0.10;;;;;;;28.07;37.27;102102.03;5106445;28;20034;-75
2022/06/10 13:04:55;;;;;;;0.10;0.10;;;;;;;27.77;37.69;102107.88;5108667;28;20052;-75
2022/06/10 13:07:28;;;;;;;0.00;0.00;;;;;;;27.68;38.20;102125.75;5108385;28;20466;-75
2022/06/10 13:10:14;;;;;;;0.10;0.10;;;;;;;27.57;38.56;102126.53;5108410;28;20044;-75
2022/06/10 13:12:40;;;;;;;0.10;0.10;;;;;;;27.72;38.41;102124.53;5099862;28;20035;-75
2022/06/10 13:15:24;;;;;;;0.20;0.20;;;;;;;27.38;38.15;102126.97;5107996;28;20036;-75
2022/06/10 13:17:56;;;;;;;0.20;0.20;;;;;;;27.41;39.30;102124.03;5108285;28;20517;-76
2022/06/10 13:20:26;;;;;;;0.10;0.10;;;;;;;27.30;38.77;102129.34;5108160;28;20036;-76
2022/06/10 13:25:52;;;;;;;0.10;0.10;;;;;;;26.98;39.42;102124.34;5065655;28;20410;-75
2022/06/10 13:28:23;;;;;;;0.10;0.10;;;;;;;27.14;39.72;102126.84;5066281;28;20025;-75
2022/06/10 13:30:51;;;;;;;0.40;0.40;;;;;;;27.60;39.73;102118.16;5067266;28;20033;-75
2022/06/10 13:33:18;;;;;;;0.15;0.15;;;;;;;27.95;38.59;102108.34;5067882;28;20025;-75
2022/06/10 13:38:30;;;;;;;0.10;0.10;;;;;;;28.14;38.23;102112.47;5108514;27;20384;-75
2022/06/10 13:43:50;;;;;;;0.63;0.40;;;;;;;27.71;39.21;102122.78;5107826;28;20035;-75
2022/06/10 13:46:28;;;;;;;1.10;0.90;;;;;;;27.28;39.49;102134.03;5108522;28;20016;-76
2022/06/10 13:49:18;;;;;;;0.10;0.10;;;;;;;27.29;39.81;102139.38;5108317;28;20104;-76
2022/06/10 13:51:52;;;;;;;0.10;0.10;;;;;;;27.13;40.19;102133.28;5107701;28;20024;-76
2022/06/10 13:54:23;;;;;;;0.20;0.20;;;;;;;27.10;40.72;102134.38;5106962;28;20032;-76
2022/06/10 13:56:51;;;;;;;0.10;0.10;;;;;;;27.09;40.80;102132.63;5098351;28;20032;-76
2022/06/10 13:59:32;;;;;;;0.28;0.28;;;;;;;27.30;40.14;102132.06;5107239;28;20501;-75
2022/06/10 14:02:13;;;;;;;0.10;0.10;;;;;;;27.26;40.52;102136.00;5097050;28;20468;-76
2022/06/10 14:04:41;;;;;;;0.65;0.65;;;;;;;27.12;41.17;102136.97;5114980;28;20024;-77
2022/06/10 14:07:20;;;;;;;0.10;0.10;;;;;;;27.21;41.04;102124.56;5105074;28;20100;-77
2022/06/10 14:09:47;;;;;;;0.30;0.30;;;;;;;27.11;41.21;102129.78;5093964;28;20220;-79